Helsinki Malmi

EFHF · Uusimaa, Finlande

METAR anciennes EFHF · Helsinki Malmi

Tu vois ci-dessous les METAR des derniers jours. Sélectionne une année pour parcourir les METAR plus anciens, à partir de l'année 2007.

13 avril 2024

Temps Code Temps Temp. Vue Base cloud Vent METAR/SPECI
10:20
M
6 °C 10 km+ 3.000 ft 200° 200° 5 kt METAR EFHK 130720Z 20005KT 170V240 9999 FEW005 BKN030 06/06 Q1010 TEMPO BKN005
09:50
M
5 °C 10 km+ 3.000 ft 200° 200° 4 kt METAR EFHK 130650Z 20004KT 9999 FEW003 BKN030 05/05 Q1010 TEMPO BKN004
09:20
L
4 °C 10 km+ 300 ft 230° 230° 4 kt METAR EFHK 130620Z 23004KT 9999 OVC003 04/04 Q1010 NOSIG
08:50
L
4 °C 1 km 200 ft 210° 210° 6 kt METAR EFHK 130550Z 21006KT 1000 R04L/P2000N R15/1900U R22L/1900N R22R/P2000N BR OVC002 04/04 Q1010 BECMG 4000
08:20
L
4 °C 300 m 200 ft 220° 220° 5 kt METAR EFHK 130520Z 22005KT 0300 R04L/0900U R15/0650N R22L/0550N R22R/0700D FG VV002 04/04 Q1011 TEMPO 0800
07:50
L
4 °C 250 m 200 ft 210° 210° 4 kt METAR EFHK 130450Z 21004KT 0250 R04L/0600N R15/0500N R22L/0500N R22R/0400D FG VV002 04/04 Q1011 TEMPO 1000 BR
07:20
L
3 °C 400 m 200 ft 190° 190° 4 kt METAR EFHK 130420Z 19004KT 0400 R04L/1000D R15/1000U R22L/0900N R22R/0900D FG VV002 03/03 Q1010 TEMPO 1000 BR
06:50
L
4 °C 600 m 200 ft 190° 190° 5 kt METAR EFHK 130350Z 19005KT 0600 R04L/1500D R15/1300D R22L/P2000N R22R/1000N FG VV002 04/04 Q1010 TEMPO 1200 BR
06:20
L
3 °C 800 m 200 ft 190° 190° 5 kt METAR EFHK 130320Z 19005KT 0800 R04L/P2000N R15/P2000N R22L/P2000N R22R/1900U FG VV002 03/03 Q1010 TEMPO 0700
05:50
L
3 °C 1,5 km 200 ft 190° 190° 5 kt METAR EFHK 130250Z 19005KT 1500 BR OVC002 03/03 Q1011 NOSIG
05:20
L
3 °C 2,5 km 200 ft 210° 210° 3 kt METAR EFHK 130220Z 21003KT 2500 BR BKN002 03/03 Q1011 NOSIG
04:50
L
3 °C 1,1 km 200 ft Var Var 2 kt METAR EFHK 130150Z VRB02KT 1100 R04L/P2000N R15/P2000N R22L/P2000N R22R/1600U BR BKN002 03/03 Q1011 NOSIG
04:20
L
3 °C 700 m 200 ft 260° 260° 4 kt METAR EFHK 130120Z 26004KT 0700 R04L/1900U R15/1700N R22L/1800U R22R/1700U FG VV002 03/03 Q1011 TEMPO 0500
03:50
L
3 °C 500 m 200 ft 220° 220° 4 kt METAR EFHK 130050Z 22004KT 0500 R04L/1700D R15/1300N R22L/1100U R22R/1200D FG VV002 03/03 Q1011 TEMPO VV001
03:20
L
3 °C 1,5 km 200 ft 210° 210° 8 kt METAR EFHK 130020Z 21008KT 1500 BR BKN002 03/03 Q1011 TEMPO 0500 FG VV001
02:50
V
4 °C 10 km+ - 180° 180° 6 kt METAR EFHK 122350Z 18006KT 9999 FEW004 04/03 Q1011 BECMG 2500 BR OVC004
02:20
V
4 °C 10 km+ - 200° 200° 4 kt METAR EFHK 122320Z 20004KT 9999 FEW004 04/02 Q1012 BECMG 4000 BR BKN004
01:50
V
4 °C 10 km+ - 200° 200° 4 kt METAR EFHK 122250Z 20004KT CAVOK 04/02 Q1012 BECMG 4000 BR BKN004
01:20
V
4 °C 10 km+ - 220° 220° 4 kt METAR EFHK 122220Z 22004KT CAVOK 04/03 Q1012 NOSIG
00:50
V
5 °C 10 km+ - 220° 220° 5 kt METAR EFHK 122150Z 22005KT CAVOK 05/03 Q1012 NOSIG
00:20
V
6 °C 10 km+ - 210° 210° 7 kt METAR EFHK 122120Z 21007KT CAVOK 06/03 Q1012 NOSIG

12 avril 2024

Temps Code Temps Temp. Vue Base cloud Vent METAR/SPECI
23:50
V
6 °C 10 km+ - 220° 220° 7 kt METAR EFHK 122050Z 22007KT CAVOK 06/02 Q1012 NOSIG
23:20
V
6 °C 10 km+ - 210° 210° 7 kt METAR EFHK 122020Z 21007KT CAVOK 06/02 Q1013 NOSIG
22:50
V
7 °C 10 km+ - 220° 220° 5 kt METAR EFHK 121950Z 22005KT CAVOK 07/03 Q1013 NOSIG
22:20
V
7 °C 10 km+ - 220° 220° 7 kt METAR EFHK 121920Z 22007KT CAVOK 07/03 Q1013 NOSIG
21:50
V
8 °C 10 km+ - 230° 230° 5 kt METAR EFHK 121850Z 23005KT CAVOK 08/04 Q1013 NOSIG
21:20
V
9 °C 10 km+ - 230° 230° 8 kt METAR EFHK 121820Z 23008KT CAVOK 09/04 Q1013 NOSIG
20:50
V
9 °C 10 km+ - 210° 210° 8 kt METAR EFHK 121750Z 21008KT CAVOK 09/04 Q1013 NOSIG
20:20
V
11 °C 10 km+ - 240° 240° 6 kt METAR EFHK 121720Z 24006KT CAVOK 11/04 Q1013 NOSIG
19:50
V
12 °C 10 km+ - 260° 260° 7 kt METAR EFHK 121650Z 26007KT CAVOK 12/03 Q1013 NOSIG
19:20
V
12 °C 10 km+ - 260° 260° 8 kt METAR EFHK 121620Z 26008KT CAVOK 12/04 Q1013 NOSIG
18:50
V
13 °C 10 km+ - 270° 270° 8 kt METAR EFHK 121550Z 27008KT CAVOK 13/03 Q1013 NOSIG
18:20
V
13 °C 10 km+ - 270° 270° 9 kt METAR EFHK 121520Z 27009KT 9999 FEW045 13/03 Q1014 NOSIG
17:50
V
13 °C 10 km+ - 270° 270° 11 kt METAR EFHK 121450Z 27011KT 250V310 9999 FEW040 13/02 Q1014 NOSIG
17:20
V
12 °C 10 km+ - 270° 270° 9 kt METAR EFHK 121420Z 27009KT 240V300 9999 FEW040 12/02 Q1014 NOSIG
16:50
V
12 °C 10 km+ - 280° 280° 11 kt METAR EFHK 121350Z 28011KT 250V310 9999 FEW040 12/03 Q1014 NOSIG
16:20
V
12 °C 10 km+ - 270° 270° 10 kt METAR EFHK 121320Z 27010KT 240V300 9999 FEW038 12/03 Q1014 NOSIG
15:50
V
12 °C 10 km+ - 280° 280° 11 kt METAR EFHK 121250Z 28011KT 240V320 9999 SCT038 12/03 Q1014 NOSIG
15:20
V
10 °C 10 km+ - 280° 280° 12 kt METAR EFHK 121220Z 28012KT 9999 SCT038 10/01 Q1014 NOSIG
14:50
V
11 °C 10 km+ 3.800 ft 270° 270° 12 kt METAR EFHK 121150Z 27012KT 240V300 9999 BKN038 11/03 Q1014 NOSIG
14:20
V
11 °C 10 km+ 3.800 ft 290° 290° 13 kt METAR EFHK 121120Z 29013KT 9999 BKN038 11/03 Q1014 NOSIG
13:50
V
11 °C 10 km+ 3.500 ft 290° 290° 13 kt METAR EFHK 121050Z 29013KT 9999 BKN035 11/02 Q1014 NOSIG
13:20
V
12 °C 10 km+ 3.200 ft 280° 280° 13 kt METAR EFHK 121020Z 28013KT 9999 BKN032 12/04 Q1014 NOSIG
12:50
V
10 °C 10 km+ 3.200 ft 280° 280° 13 kt METAR EFHK 120950Z 28013KT 250V310 9999 BKN032 10/02 Q1014 NOSIG
12:20
M
9 °C 10 km+ 2.800 ft 290° 290° 12 kt METAR EFHK 120920Z 29012KT 9999 BKN028 09/02 Q1013 NOSIG
11:50
M
9 °C 10 km+ 2.800 ft 280° 280° 11 kt METAR EFHK 120850Z 28011KT 260V320 9999 BKN028 09/03 Q1013 NOSIG
11:20
M
8 °C 10 km+ 2.500 ft 290° 290° 14 kt METAR EFHK 120820Z 29014KT 9999 BKN025 08/03 Q1013 NOSIG
10:50
M
8 °C 10 km+ 2.000 ft 300° 300° 15 kt METAR EFHK 120750Z 30015KT 9999 BKN020 08/04 Q1012 NOSIG
10:20
M
8 °C 10 km+ 2.000 ft 290° 290° 16 kt METAR EFHK 120720Z 29016KT 9999 BKN020 08/05 Q1012 TEMPO BKN012
09:50
M
7 °C 10 km+ 1.700 ft 300° 300° 16 kt METAR EFHK 120650Z 30016KT 9999 BKN017 07/04 Q1012 TEMPO BKN012
09:20
M
8 °C 10 km+ 1.800 ft 300° 300° 13 - 23 kt METAR EFHK 120620Z 30013G23KT 9999 BKN018 BKN035 08/05 Q1011 TEMPO BKN012
08:50
V
8 °C 10 km+ 3.300 ft 290° 290° 11 kt METAR EFHK 120550Z 29011KT 9999 FEW018 BKN033 08/05 Q1011 TEMPO BKN012
08:20
V
7 °C 10 km+ - 280° 280° 12 kt METAR EFHK 120520Z 28012KT 9999 SCT016 07/05 Q1010 TEMPO BKN012
07:50
V
7 °C 10 km+ - 280° 280° 10 kt METAR EFHK 120450Z 28010KT 9999 FEW014 07/05 Q1010 TEMPO BKN012
07:20
V
7 °C 10 km+ - 270° 270° 9 kt METAR EFHK 120420Z 27009KT 9999 FEW011 07/05 Q1010 NOSIG
06:50
M
6 °C 10 km+ 1.100 ft 260° 260° 10 kt METAR EFHK 120350Z 26010KT 9999 BKN011 BKN047 06/05 Q1009 BECMG SCT011 BKN047
06:20
M
6 °C 10 km+ 1.100 ft 260° 260° 11 kt METAR EFHK 120320Z 26011KT 9999 BKN011 06/05 Q1009 BECMG SCT011
05:50
M
6 °C 10 km+ 1.100 ft 260° 260° 11 kt METAR EFHK 120250Z 26011KT 9999 BKN011 06/05 Q1009 BECMG SCT011
05:20
M
6 °C 10 km+ 1.200 ft 260° 260° 11 kt METAR EFHK 120220Z 26011KT 9999 BKN012 06/05 Q1009 NOSIG
04:50
M
6 °C 10 km+ 1.200 ft 260° 260° 10 kt METAR EFHK 120150Z 26010KT 9999 BKN012 06/05 Q1009 TEMPO BKN015
04:20
M
6 °C 10 km+ 1.300 ft 250° 250° 10 kt METAR EFHK 120120Z 25010KT 9999 BKN013 06/05 Q1009 BECMG BKN015
03:50
V
6 °C 10 km+ - 250° 250° 11 kt METAR EFHK 120050Z 25011KT 9999 FEW014 06/04 Q1008 NOSIG
03:20
V
6 °C 10 km+ - 260° 260° 13 kt METAR EFHK 120020Z 26013KT 9999 FEW016 06/05 Q1008 NOSIG
02:50
M
7 °C 10 km+ 1.700 ft 250° 250° 12 kt METAR EFHK 112350Z 25012KT 9999 FEW014 BKN017 07/05 Q1007 NOSIG
02:20
M
7 °C 10 km+ 1.600 ft 250° 250° 12 kt METAR EFHK 112320Z 25012KT 9999 SCT013 BKN016 07/05 Q1007 NOSIG
01:50
M
7 °C 10 km+ 2.000 ft 250° 250° 15 kt METAR EFHK 112250Z 25015KT 9999 SCT011 BKN020 OVC031 07/06 Q1007 NOSIG
01:20
I
7 °C 10 km+ 700 ft 240° 240° 11 kt METAR EFHK 112220Z 24011KT 9999 -DZ BKN007 OVC015 07/06 Q1007 TEMPO SCT007 BKN015
00:50
I
7 °C 10 km+ 600 ft 240° 240° 12 kt METAR EFHK 112150Z 24012KT 9999 -DZ OVC006 07/06 Q1006 NOSIG
00:20
L
6 °C 5 km 400 ft 230° 230° 10 kt METAR EFHK 112120Z 23010KT 5000 -DZ OVC004 06/06 Q1006 TEMPO 8000 OVC005

11 avril 2024

Temps Code Temps Temp. Vue Base cloud Vent METAR/SPECI
23:50
L
6 °C 6 km 400 ft 220° 220° 11 kt METAR EFHK 112050Z 22011KT 6000 -DZ OVC004 06/05 Q1006 TEMPO 8000 OVC005
23:20
I
5 °C 10 km+ 500 ft 220° 220° 11 kt METAR EFHK 112020Z 22011KT 9999 -RADZ OVC005 05/05 Q1006 NOSIG
22:50
L
5 °C 7 km 400 ft 210° 210° 13 kt METAR EFHK 111950Z 21013KT 7000 -DZ OVC004 05/05 Q1007 NOSIG
22:20
L
5 °C 6 km 400 ft 210° 210° 15 kt METAR EFHK 111920Z 21015KT 6000 -DZ OVC004 05/04 Q1007 TEMPO 4000
21:50
I
5 °C 9 km 500 ft 210° 210° 15 kt METAR EFHK 111850Z 21015KT 9000 -DZ OVC005 05/04 Q1008 TEMPO 6000 OVC004
21:20
I
5 °C 9 km 600 ft 210° 210° 16 kt METAR EFHK 111820Z 21016KT 9000 -DZ OVC006 05/04 Q1008 TEMPO 6000
20:50
I
5 °C 4,9 km 500 ft 220° 220° 17 kt METAR EFHK 111750Z 22017KT 4900 -DZ OVC005 05/05 Q1009 TEMPO 5000 BKN004
20:20
I
5 °C 5 km 600 ft 210° 210° 20 kt METAR EFHK 111720Z 21020KT 5000 -DZ OVC006 05/05 Q1009 TEMPO 4000 BKN004
19:50
I
6 °C 9 km 700 ft 210° 210° 17 kt METAR EFHK 111650Z 21017KT 9000 -RA OVC007 06/05 Q1010 NOSIG
19:20
M
6 °C 10 km+ 1.100 ft 210° 210° 20 kt METAR EFHK 111620Z 21020KT 9999 -RA OVC011 06/04 Q1011 BECMG BKN008
18:50
M
7 °C 10 km+ 2.000 ft 200° 200° 15 kt METAR EFHK 111550Z 20015KT 9999 -RA OVC020 07/02 Q1012 NOSIG
18:20
V
7 °C 10 km+ 3.800 ft 210° 210° 16 kt METAR EFHK 111520Z 21016KT 9999 FEW019 BKN038 07/03 Q1013 NOSIG
17:50
V
6 °C 10 km+ 4.000 ft 220° 220° 16 kt METAR EFHK 111450Z 22016KT 9999 -RA FEW016 BKN040 06/03 Q1013 NOSIG
17:20
V
7 °C 10 km+ 3.200 ft 210° 210° 15 kt METAR EFHK 111420Z 21015KT 9999 -RA BKN032 BKN040 07/02 Q1014 NOSIG
16:50
V
8 °C 10 km+ 3.500 ft 210° 210° 15 kt METAR EFHK 111350Z 21015KT 9999 FEW030 BKN035 08/02 Q1014 NOSIG
16:20
V
8 °C 10 km+ 4.800 ft 210° 210° 16 kt METAR EFHK 111320Z 21016KT 9999 BKN048 08/01 Q1015 NOSIG
15:50
V
9 °C 10 km+ - 210° 210° 18 kt METAR EFHK 111250Z 21018KT CAVOK 09/01 Q1015 NOSIG
15:20
V
9 °C 10 km+ - 210° 210° 19 kt METAR EFHK 111220Z 21019KT CAVOK 09/01 Q1015 NOSIG
14:50
V
9 °C 10 km+ - 210° 210° 21 kt METAR EFHK 111150Z 21021KT 9999 FEW040 09/01 Q1015 NOSIG
14:20
V
11 °C 10 km+ - 220° 220° 18 kt METAR EFHK 111120Z 22018KT 9999 FEW040 11/01 Q1014 NOSIG
13:50
V
12 °C 10 km+ - 220° 220° 18 kt METAR EFHK 111050Z 22018KT 9999 FEW040 12/02 Q1015 NOSIG
13:20
V
10 °C 10 km+ - 200° 200° 16 kt METAR EFHK 111020Z 20016KT CAVOK 10/02 Q1015 NOSIG
12:50
V
11 °C 10 km+ - 220° 220° 18 kt METAR EFHK 110950Z 22018KT CAVOK 11/00 Q1014 NOSIG
12:20
V
11 °C 10 km+ - 220° 220° 15 kt METAR EFHK 110920Z 22015KT CAVOK 11/M00 Q1014 NOSIG
11:50
V
11 °C 10 km+ - 230° 230° 15 kt METAR EFHK 110850Z 23015KT CAVOK 11/01 Q1014 NOSIG
11:20
V
10 °C 10 km+ - 220° 220° 12 kt METAR EFHK 110820Z 22012KT CAVOK 10/M00 Q1014 NOSIG
10:50
V
9 °C 10 km+ - 240° 240° 12 kt METAR EFHK 110750Z 24012KT CAVOK 09/M00 Q1015 NOSIG
10:20
V
9 °C 10 km+ - 250° 250° 11 kt METAR EFHK 110720Z 25011KT 220V280 CAVOK 09/00 Q1014 NOSIG
09:50
V
8 °C 10 km+ - 260° 260° 11 kt METAR EFHK 110650Z 26011KT CAVOK 08/00 Q1014 NOSIG
09:20
V
7 °C 10 km+ - 250° 250° 12 kt METAR EFHK 110620Z 25012KT CAVOK 07/M01 Q1014 NOSIG
08:50
V
7 °C 10 km+ - 250° 250° 14 kt METAR EFHK 110550Z 25014KT CAVOK 07/M00 Q1014 NOSIG
Signaler les modifications